createdAt,value
2022-08-22T00:00:13.867Z,18.10
2022-08-22T00:01:13.800Z,18.09
2022-08-22T00:02:13.856Z,18.07
2022-08-22T00:02:49.712Z,19.73
2022-08-22T00:02:53.142Z,20.47
2022-08-22T00:02:53.749Z,19.90
2022-08-22T00:02:57.283Z,19.88
2022-08-22T00:03:08.058Z,19.76
2022-08-22T00:03:08.632Z,19.05
2022-08-22T00:03:18.731Z,18.09
2022-08-22T00:04:14.760Z,18.09
2022-08-22T00:05:13.759Z,18.07
2022-08-22T00:06:13.753Z,18.06
2022-08-22T00:07:14.439Z,18.03
2022-08-22T00:08:13.719Z,17.99
2022-08-22T00:09:13.731Z,17.94
2022-08-22T00:10:22.808Z,17.91
2022-08-22T00:11:14.682Z,17.87
2022-08-22T00:12:13.683Z,17.84
2022-08-22T00:13:13.682Z,17.78
2022-08-22T00:14:13.670Z,17.74
2022-08-22T00:15:42.151Z,17.69
2022-08-22T00:16:14.654Z,17.67
2022-08-22T00:17:13.621Z,17.64
2022-08-22T00:18:13.634Z,17.64
2022-08-22T00:19:13.602Z,17.63
2022-08-22T00:20:13.615Z,17.64
2022-08-22T00:21:13.574Z,17.63
2022-08-22T00:22:13.572Z,17.62
2022-08-22T00:23:13.552Z,17.59
2022-08-22T00:24:13.546Z,17.62
2022-08-22T00:25:25.922Z,17.62
2022-08-22T00:26:14.642Z,17.57
2022-08-22T00:27:13.524Z,17.55
2022-08-22T00:28:13.495Z,17.55
2022-08-22T00:29:13.486Z,17.54
2022-08-22T00:30:13.494Z,17.53
2022-08-22T00:31:13.467Z,17.50
2022-08-22T00:32:13.474Z,17.48
2022-08-22T00:33:13.437Z,17.46
2022-08-22T00:34:13.442Z,17.46
2022-08-22T00:35:13.436Z,17.44
2022-08-22T00:36:13.404Z,17.41
2022-08-22T00:37:13.395Z,17.36
2022-08-22T00:38:13.387Z,17.35
2022-08-22T00:39:13.367Z,17.30
2022-08-22T00:40:13.497Z,17.30
2022-08-22T00:41:13.357Z,17.32
2022-08-22T00:42:13.347Z,17.29
2022-08-22T00:43:13.329Z,17.29
2022-08-22T00:44:13.318Z,17.26
2022-08-22T00:45:13.306Z,17.25
2022-08-22T00:46:13.326Z,17.22
2022-08-22T00:47:13.286Z,17.20
2022-08-22T00:48:14.614Z,17.15
2022-08-22T00:49:13.291Z,17.13
2022-08-22T00:50:13.249Z,17.14
2022-08-22T00:51:13.238Z,17.13
2022-08-22T00:52:13.236Z,17.10
2022-08-22T00:53:13.218Z,17.06
2022-08-22T00:54:17.574Z,17.06
2022-08-22T00:55:14.190Z,17.06
2022-08-22T00:56:13.179Z,17.00
2022-08-22T00:57:13.178Z,16.98
2022-08-22T00:58:13.160Z,16.95
2022-08-22T00:59:23.322Z,16.90
2022-08-22T01:00:14.144Z,16.86
2022-08-22T01:01:13.190Z,16.83
2022-08-22T01:02:13.120Z,16.81
2022-08-22T01:03:13.102Z,16.80
2022-08-22T01:04:13.091Z,16.78
2022-08-22T01:05:13.112Z,16.78
2022-08-22T01:06:13.071Z,16.75
2022-08-22T01:07:13.060Z,16.73
2022-08-22T01:08:13.055Z,16.74
2022-08-22T01:09:13.040Z,16.71
2022-08-22T01:10:13.031Z,16.73
2022-08-22T01:11:13.041Z,16.71
2022-08-22T01:12:13.011Z,16.70
2022-08-22T01:13:12.991Z,16.68
2022-08-22T01:14:12.989Z,16.67
2022-08-22T01:15:12.992Z,16.68
2022-08-22T01:16:12.963Z,16.70
2022-08-22T01:17:12.954Z,16.70
2022-08-22T01:18:12.944Z,16.67
2022-08-22T01:19:12.923Z,16.63
2022-08-22T01:20:12.922Z,16.60
2022-08-22T01:21:12.925Z,16.58
2022-08-22T01:22:12.921Z,16.55
2022-08-22T01:23:12.883Z,16.55
2022-08-22T01:24:12.875Z,16.52
2022-08-22T01:25:12.918Z,16.52
2022-08-22T01:26:12.855Z,16.50
2022-08-22T01:27:12.855Z,16.49
2022-08-22T01:28:12.834Z,16.50
2022-08-22T01:29:12.823Z,16.48
2022-08-22T01:30:12.826Z,16.45
2022-08-22T01:31:12.787Z,16.44
2022-08-22T01:32:12.785Z,16.40
2022-08-22T01:33:12.774Z,16.38
2022-08-22T01:34:13.138Z,16.35
2022-08-22T01:35:12.765Z,16.35
2022-08-22T01:36:12.744Z,16.34
2022-08-22T01:37:12.728Z,16.31
2022-08-22T01:38:12.718Z,16.33
2022-08-22T01:39:12.697Z,16.31
2022-08-22T01:40:12.774Z,16.33
2022-08-22T01:41:12.688Z,16.26
2022-08-22T01:42:12.668Z,16.30
2022-08-22T01:43:12.679Z,16.27
2022-08-22T01:44:12.658Z,16.25
2022-08-22T01:45:12.639Z,16.23
2022-08-22T01:46:12.628Z,16.20
2022-08-22T01:47:13.619Z,16.20
2022-08-22T01:48:12.636Z,16.18
2022-08-22T01:49:12.589Z,16.16
2022-08-22T01:50:12.579Z,16.18
2022-08-22T01:51:12.579Z,16.18
2022-08-22T01:52:12.560Z,16.15
2022-08-22T01:53:12.548Z,16.14
2022-08-22T01:54:12.561Z,16.14
2022-08-22T01:55:12.526Z,16.11
2022-08-22T01:56:12.518Z,16.09
2022-08-22T01:57:12.501Z,16.11
2022-08-22T01:58:12.497Z,16.07
2022-08-22T01:59:12.510Z,16.04
2022-08-22T02:00:12.490Z,16.04
2022-08-22T02:01:12.482Z,16.01
2022-08-22T02:02:12.451Z,15.99
2022-08-22T02:03:12.430Z,15.99
2022-08-22T02:04:12.429Z,16.00
2022-08-22T02:05:12.441Z,15.99
2022-08-22T02:06:14.563Z,15.97
2022-08-22T02:07:12.391Z,15.99
2022-08-22T02:08:12.390Z,15.99
2022-08-22T02:09:12.394Z,15.99
2022-08-22T02:10:12.381Z,15.97
2022-08-22T02:11:12.344Z,15.97
2022-08-22T02:12:21.412Z,15.96
2022-08-22T02:13:13.321Z,15.94
2022-08-22T02:14:12.314Z,15.96
2022-08-22T02:15:12.322Z,15.92
2022-08-22T02:16:12.301Z,15.89
2022-08-22T02:17:12.282Z,15.89
2022-08-22T02:18:12.285Z,15.88
2022-08-22T02:19:12.253Z,15.88
2022-08-22T02:20:12.273Z,15.85
2022-08-22T02:21:12.241Z,15.81
2022-08-22T02:22:12.224Z,15.79
2022-08-22T02:23:12.225Z,15.79
2022-08-22T02:24:12.204Z,15.78
2022-08-22T02:25:12.203Z,15.78
2022-08-22T02:26:12.212Z,15.82
2022-08-22T02:27:12.176Z,15.84
2022-08-22T02:28:12.163Z,15.82
2022-08-22T02:29:12.144Z,15.84
2022-08-22T02:30:12.162Z,15.82
2022-08-22T02:31:12.125Z,15.85
2022-08-22T02:32:12.118Z,15.85
2022-08-22T02:33:12.105Z,15.82
2022-08-22T02:34:12.096Z,15.82
2022-08-22T02:35:12.106Z,15.81
2022-08-22T02:36:12.067Z,15.82
2022-08-22T02:37:12.077Z,15.82
2022-08-22T02:38:12.055Z,15.82
2022-08-22T02:39:12.038Z,15.82
2022-08-22T02:40:12.092Z,15.81
2022-08-22T02:41:12.014Z,15.79
2022-08-22T02:42:12.006Z,15.79
2022-08-22T02:43:11.988Z,15.81
2022-08-22T02:44:11.987Z,15.81
2022-08-22T02:45:11.967Z,15.82
2022-08-22T02:46:11.991Z,15.81
2022-08-22T02:47:11.947Z,15.84
2022-08-22T02:48:11.947Z,15.79
2022-08-22T02:49:11.935Z,15.79
2022-08-22T02:50:12.604Z,15.78
2022-08-22T02:51:11.928Z,15.78
2022-08-22T02:52:11.922Z,15.75
2022-08-22T02:53:11.879Z,15.75
2022-08-22T02:54:11.876Z,15.72
2022-08-22T02:55:11.859Z,15.70
2022-08-22T02:56:11.849Z,15.66
2022-08-22T02:57:14.420Z,15.64
2022-08-22T02:58:11.830Z,15.64
2022-08-22T02:59:11.819Z,15.63
2022-08-22T03:00:30.737Z,15.63
2022-08-22T03:01:12.868Z,15.63
2022-08-22T03:02:11.810Z,15.60
2022-08-22T03:03:11.773Z,15.59
2022-08-22T03:04:11.760Z,15.57
2022-08-22T03:05:11.754Z,15.56
2022-08-22T03:06:11.741Z,15.54
2022-08-22T03:07:11.733Z,15.54
2022-08-22T03:08:13.099Z,15.51
2022-08-22T03:09:11.711Z,15.52
2022-08-22T03:10:11.692Z,15.46
2022-08-22T03:11:11.682Z,15.45
2022-08-22T03:12:11.694Z,15.42
2022-08-22T03:13:11.662Z,15.41
2022-08-22T03:14:11.652Z,15.39
2022-08-22T03:15:11.642Z,15.39
2022-08-22T03:16:11.623Z,15.41
2022-08-22T03:17:11.622Z,15.41
2022-08-22T03:18:11.637Z,15.42
2022-08-22T03:19:16.171Z,15.41
2022-08-22T03:20:12.583Z,15.42
2022-08-22T03:21:11.582Z,15.42
2022-08-22T03:22:11.563Z,15.41
2022-08-22T03:23:11.554Z,15.39
2022-08-22T03:24:11.576Z,15.39
2022-08-22T03:25:11.533Z,15.36
2022-08-22T03:26:11.521Z,15.31
2022-08-22T03:27:11.514Z,15.30
2022-08-22T03:28:11.495Z,15.27
2022-08-22T03:29:11.510Z,15.26
2022-08-22T03:30:11.475Z,15.24
2022-08-22T03:31:11.504Z,15.23
2022-08-22T03:32:11.453Z,15.21
2022-08-22T03:33:11.445Z,15.21
2022-08-22T03:34:11.426Z,15.17
2022-08-22T03:35:11.444Z,15.15
2022-08-22T03:36:11.405Z,15.13
2022-08-22T03:37:11.398Z,15.12
2022-08-22T03:38:11.386Z,15.09
2022-08-22T03:39:16.623Z,15.08
2022-08-22T03:40:12.406Z,15.08
2022-08-22T03:41:11.356Z,15.06
2022-08-22T03:42:11.336Z,15.03
2022-08-22T03:43:11.336Z,15.03
2022-08-22T03:44:11.338Z,15.03
2022-08-22T03:45:11.337Z,14.99
2022-08-22T03:46:11.297Z,14.99
2022-08-22T03:47:11.288Z,14.98
2022-08-22T03:48:11.276Z,14.98
2022-08-22T03:49:11.259Z,14.95
2022-08-22T03:50:11.277Z,14.98
2022-08-22T03:51:11.274Z,14.95
2022-08-22T03:52:11.230Z,14.98
2022-08-22T03:53:15.472Z,15.01
2022-08-22T03:54:12.209Z,14.95
2022-08-22T03:55:11.202Z,14.94
2022-08-22T03:56:11.188Z,14.90
2022-08-22T03:57:11.196Z,14.88
2022-08-22T03:58:12.022Z,14.88
2022-08-22T03:59:12.148Z,14.88
2022-08-22T04:00:11.142Z,14.91
2022-08-22T04:01:11.170Z,14.91
2022-08-22T04:02:27.512Z,14.91
2022-08-22T04:03:12.110Z,14.90
2022-08-22T04:04:11.100Z,14.88
2022-08-22T04:05:11.081Z,14.88
2022-08-22T04:06:12.593Z,14.86
2022-08-22T04:07:17.757Z,14.84
2022-08-22T04:08:13.152Z,14.83
2022-08-22T04:09:11.070Z,14.81
2022-08-22T04:10:11.031Z,14.81
2022-08-22T04:11:11.021Z,14.81
2022-08-22T04:12:11.012Z,14.83
2022-08-22T04:13:10.992Z,14.84
2022-08-22T04:14:10.994Z,14.86
2022-08-22T04:15:10.993Z,14.84
2022-08-22T04:16:10.963Z,14.83
2022-08-22T04:17:10.951Z,14.81
2022-08-22T04:18:10.951Z,14.83
2022-08-22T04:19:10.954Z,14.83
2022-08-22T04:20:10.923Z,14.84
2022-08-22T04:21:10.913Z,14.86
2022-08-22T04:22:10.962Z,14.87
2022-08-22T04:23:10.960Z,14.87
2022-08-22T04:24:10.925Z,14.88
2022-08-22T04:25:10.956Z,14.86
2022-08-22T04:26:12.006Z,14.84
2022-08-22T04:27:10.883Z,14.81
2022-08-22T04:28:10.962Z,14.81
2022-08-22T04:29:11.172Z,14.80
2022-08-22T04:30:10.813Z,14.74
2022-08-22T04:31:10.806Z,14.74
2022-08-22T04:32:14.522Z,14.75
2022-08-22T04:33:10.782Z,14.80
2022-08-22T04:34:10.764Z,14.81
2022-08-22T04:35:10.775Z,14.81
2022-08-22T04:36:10.744Z,14.81
2022-08-22T04:37:10.738Z,14.80
2022-08-22T04:38:10.725Z,14.80
2022-08-22T04:39:10.706Z,14.80
2022-08-22T04:40:10.747Z,14.72
2022-08-22T04:41:10.707Z,14.72
2022-08-22T04:42:31.164Z,14.72
2022-08-22T04:43:11.665Z,14.72
2022-08-22T04:44:10.655Z,14.72
2022-08-22T04:45:10.675Z,14.71
2022-08-22T04:46:10.636Z,14.69
2022-08-22T04:47:10.626Z,14.71
2022-08-22T04:48:10.614Z,14.78
2022-08-22T04:49:10.607Z,14.75
2022-08-22T04:50:10.588Z,14.78
2022-08-22T04:51:10.918Z,14.80
2022-08-22T04:52:10.567Z,14.80
2022-08-22T04:53:10.557Z,14.81
2022-08-22T04:54:10.553Z,14.83
2022-08-22T04:55:10.597Z,14.84
2022-08-22T04:56:10.635Z,14.87
2022-08-22T04:57:10.530Z,14.90
2022-08-22T04:58:10.499Z,14.93
2022-08-22T04:59:10.489Z,14.95
2022-08-22T05:00:10.511Z,14.98
2022-08-22T05:01:10.490Z,14.98
2022-08-22T05:02:10.506Z,15.01
2022-08-22T05:03:10.441Z,15.03
2022-08-22T05:04:10.441Z,15.06
2022-08-22T05:05:13.445Z,15.08
2022-08-22T05:06:10.440Z,15.08
2022-08-22T05:07:10.402Z,15.06
2022-08-22T05:08:18.188Z,15.08
2022-08-22T05:09:14.214Z,15.08
2022-08-22T05:10:12.363Z,15.09
2022-08-22T05:11:10.367Z,15.13
2022-08-22T05:12:10.376Z,15.20
2022-08-22T05:13:10.337Z,15.24
2022-08-22T05:14:10.338Z,15.24
2022-08-22T05:15:10.310Z,15.24
2022-08-22T05:16:10.306Z,15.23
2022-08-22T05:17:10.309Z,15.26
2022-08-22T05:18:10.281Z,15.28
2022-08-22T05:19:13.204Z,15.28
2022-08-22T05:20:11.261Z,15.30
2022-08-22T05:21:11.234Z,15.35
2022-08-22T05:22:10.269Z,15.36
2022-08-22T05:23:16.966Z,15.39
2022-08-22T05:24:11.221Z,15.42
2022-08-22T05:25:10.200Z,15.42
2022-08-22T05:26:10.200Z,15.45
2022-08-22T05:27:10.181Z,15.46
2022-08-22T05:28:10.191Z,15.46
2022-08-22T05:29:10.159Z,15.48
2022-08-22T05:30:10.150Z,15.54
2022-08-22T05:31:10.132Z,15.56
2022-08-22T05:32:10.153Z,15.60
2022-08-22T05:33:10.112Z,15.60
2022-08-22T05:34:10.102Z,15.66
2022-08-22T05:35:10.095Z,15.68
2022-08-22T05:36:10.114Z,15.72
2022-08-22T05:37:10.076Z,15.75
2022-08-22T05:38:10.089Z,15.76
2022-08-22T05:39:10.084Z,15.78
2022-08-22T05:40:10.102Z,15.79
2022-08-22T05:41:10.029Z,15.81
2022-08-22T05:42:10.075Z,15.84
2022-08-22T05:43:10.119Z,15.85
2022-08-22T05:44:09.994Z,15.92
2022-08-22T05:45:12.115Z,15.96
2022-08-22T05:46:09.996Z,15.99
2022-08-22T05:47:09.962Z,16.03
2022-08-22T05:48:09.973Z,16.09
2022-08-22T05:49:09.933Z,16.12
2022-08-22T05:50:09.952Z,16.16
2022-08-22T05:51:09.914Z,16.22
2022-08-22T05:52:09.913Z,16.25
2022-08-22T05:53:09.894Z,16.33
2022-08-22T05:54:09.893Z,16.37
2022-08-22T05:55:09.896Z,16.42
2022-08-22T05:56:09.865Z,16.49
2022-08-22T05:57:09.846Z,16.53
2022-08-22T05:58:09.842Z,16.58
2022-08-22T05:59:09.854Z,16.65
2022-08-22T06:00:09.815Z,16.68
2022-08-22T06:01:09.820Z,16.75
2022-08-22T06:02:09.833Z,16.77
2022-08-22T06:03:09.785Z,16.83
2022-08-22T06:04:09.775Z,16.89
2022-08-22T06:05:12.040Z,16.88
2022-08-22T06:06:09.765Z,16.92
2022-08-22T06:07:09.746Z,16.96
2022-08-22T06:08:09.727Z,17.03
2022-08-22T06:09:09.717Z,17.08
2022-08-22T06:10:09.759Z,17.15
2022-08-22T06:11:09.689Z,17.15
2022-08-22T06:12:11.669Z,17.22
2022-08-22T06:13:11.758Z,17.23
2022-08-22T06:14:09.669Z,17.28
2022-08-22T06:15:11.999Z,17.33
2022-08-22T06:16:09.656Z,17.36
2022-08-22T06:17:09.649Z,17.38
2022-08-22T06:18:09.618Z,17.46
2022-08-22T06:19:19.548Z,17.48
2022-08-22T06:20:10.601Z,17.50
2022-08-22T06:21:09.579Z,17.53
2022-08-22T06:22:09.580Z,17.63
2022-08-22T06:23:09.598Z,17.71
2022-08-22T06:24:09.556Z,17.79
2022-08-22T06:25:09.531Z,17.85
2022-08-22T06:26:20.788Z,17.92
2022-08-22T06:27:10.518Z,18.00
2022-08-22T06:28:09.509Z,18.06
2022-08-22T06:29:09.519Z,18.13
2022-08-22T06:30:09.489Z,18.21
2022-08-22T06:31:09.480Z,18.28
2022-08-22T06:32:09.490Z,18.37
2022-08-22T06:33:12.614Z,18.44
2022-08-22T06:34:09.441Z,18.52
2022-08-22T06:35:09.431Z,18.61
2022-08-22T06:36:09.413Z,18.68
2022-08-22T06:37:09.402Z,18.74
2022-08-22T06:38:09.431Z,18.80
2022-08-22T06:39:09.382Z,18.86
2022-08-22T06:40:09.440Z,18.91
2022-08-22T06:41:09.353Z,18.97
2022-08-22T06:42:12.226Z,18.99
2022-08-22T06:43:10.363Z,19.08
2022-08-22T06:44:09.355Z,19.13
2022-08-22T06:45:09.334Z,19.21
2022-08-22T06:46:09.314Z,19.32
2022-08-22T06:47:09.294Z,19.38
2022-08-22T06:48:09.304Z,19.47
2022-08-22T06:49:09.307Z,19.54
2022-08-22T06:50:13.733Z,19.61
2022-08-22T06:51:09.246Z,19.72
2022-08-22T06:52:09.236Z,19.80
2022-08-22T06:53:09.225Z,19.88
2022-08-22T06:54:09.216Z,19.98
2022-08-22T06:55:09.232Z,20.06
2022-08-22T06:56:09.204Z,20.15
2022-08-22T06:57:09.197Z,20.21
2022-08-22T06:58:09.176Z,20.30
2022-08-22T06:59:09.186Z,20.35
2022-08-22T07:00:09.156Z,20.43
2022-08-22T07:01:12.310Z,20.47
2022-08-22T07:02:09.206Z,20.49
2022-08-22T07:03:09.117Z,20.51
2022-08-22T07:04:09.207Z,20.56
2022-08-22T07:05:09.117Z,20.62
2022-08-22T07:06:09.089Z,20.69
2022-08-22T07:07:09.069Z,20.74
2022-08-22T07:08:09.063Z,20.81
2022-08-22T07:09:09.062Z,20.89
2022-08-22T07:10:09.071Z,20.93
2022-08-22T07:11:09.032Z,20.95
2022-08-22T07:12:09.018Z,21.04
2022-08-22T07:13:09.010Z,21.13
2022-08-22T07:14:08.992Z,21.19
2022-08-22T07:15:09.007Z,21.29
2022-08-22T07:16:08.979Z,21.35
2022-08-22T07:17:08.965Z,21.41
2022-08-22T07:18:08.956Z,21.46
2022-08-22T07:19:08.939Z,21.51
2022-08-22T07:20:08.943Z,21.59
2022-08-22T07:21:09.319Z,21.61
2022-08-22T07:22:08.903Z,21.72
2022-08-22T07:23:08.892Z,21.72
2022-08-22T07:24:08.874Z,21.71
2022-08-22T07:25:08.893Z,21.67
2022-08-22T07:26:08.875Z,21.71
2022-08-22T07:27:08.848Z,21.79
2022-08-22T07:28:08.836Z,21.81
2022-08-22T07:29:11.391Z,21.85
2022-08-22T07:30:10.237Z,21.92
2022-08-22T07:31:08.918Z,22.01
2022-08-22T07:32:08.796Z,22.10
2022-08-22T07:33:26.353Z,22.17
2022-08-22T07:34:09.778Z,22.17
2022-08-22T07:35:08.794Z,22.20
2022-08-22T07:36:08.746Z,22.23
2022-08-22T07:37:08.746Z,22.28
2022-08-22T07:38:08.734Z,22.44
2022-08-22T07:39:11.102Z,22.56
2022-08-22T07:40:08.765Z,22.64
2022-08-22T07:41:08.728Z,22.74
2022-08-22T07:42:08.679Z,22.83
2022-08-22T07:43:08.678Z,22.87
2022-08-22T07:44:08.670Z,23.01
2022-08-22T07:45:08.658Z,23.02
2022-08-22T07:46:08.639Z,23.08
2022-08-22T07:47:08.661Z,23.14
2022-08-22T07:48:08.616Z,23.23
2022-08-22T07:49:10.041Z,23.45
2022-08-22T07:50:08.599Z,23.58
2022-08-22T07:51:08.730Z,23.67
2022-08-22T07:52:08.569Z,23.76
2022-08-22T07:53:08.569Z,23.86
2022-08-22T07:54:08.550Z,23.89
2022-08-22T07:55:08.551Z,24.04
2022-08-22T07:56:08.562Z,24.17
2022-08-22T07:57:08.519Z,24.26
2022-08-22T07:58:08.521Z,24.26
2022-08-22T07:59:12.852Z,24.17
2022-08-22T08:00:08.506Z,24.13
2022-08-22T08:01:08.527Z,24.19
2022-08-22T08:02:08.485Z,24.23
2022-08-22T08:03:08.461Z,24.26
2022-08-22T08:04:08.434Z,24.31
2022-08-22T08:05:08.436Z,24.32
2022-08-22T08:06:08.425Z,24.34
2022-08-22T08:07:08.435Z,24.34
2022-08-22T08:08:08.397Z,24.37
2022-08-22T08:09:08.398Z,24.39
2022-08-22T08:10:12.480Z,24.50
2022-08-22T08:11:08.384Z,24.60
2022-08-22T08:12:08.397Z,24.63
2022-08-22T08:13:08.346Z,24.63
2022-08-22T08:14:08.336Z,24.64
2022-08-22T08:15:09.328Z,24.69
2022-08-22T08:16:08.306Z,24.69
2022-08-22T08:17:08.318Z,24.64
2022-08-22T08:18:08.287Z,24.64
2022-08-22T08:19:08.277Z,24.67
2022-08-22T08:20:08.260Z,24.64
2022-08-22T08:21:08.249Z,24.68
2022-08-22T08:22:08.251Z,24.73
2022-08-22T08:23:08.258Z,24.80
2022-08-22T08:24:08.220Z,24.85
2022-08-22T08:25:08.218Z,24.91
2022-08-22T08:26:08.200Z,24.97
2022-08-22T08:27:08.211Z,24.95
2022-08-22T08:28:08.183Z,24.95
2022-08-22T08:29:08.169Z,24.92
2022-08-22T08:30:12.188Z,24.76
2022-08-22T08:31:09.150Z,24.54
2022-08-22T08:32:08.150Z,24.56
2022-08-22T08:33:25.717Z,24.59
2022-08-22T08:34:09.103Z,24.61
2022-08-22T08:35:08.102Z,24.67
2022-08-22T08:36:08.102Z,24.73
2022-08-22T08:37:08.100Z,24.71
2022-08-22T08:38:08.062Z,24.73
2022-08-22T08:39:08.065Z,24.77
2022-08-22T08:40:08.084Z,24.79
2022-08-22T08:41:08.035Z,24.73
2022-08-22T08:42:08.044Z,24.75
2022-08-22T08:43:09.077Z,24.77
2022-08-22T08:44:08.034Z,24.80
2022-08-22T08:45:07.988Z,24.88
2022-08-22T08:46:07.996Z,24.95
2022-08-22T08:47:07.996Z,25.07
2022-08-22T08:48:07.949Z,25.22
2022-08-22T08:49:07.946Z,25.39
2022-08-22T08:50:07.927Z,25.50
2022-08-22T08:51:07.925Z,25.57
2022-08-22T08:52:07.907Z,25.52
2022-08-22T08:53:07.949Z,25.46
2022-08-22T08:54:07.888Z,25.49
2022-08-22T08:55:15.959Z,25.56
2022-08-22T08:56:10.821Z,25.64
2022-08-22T08:57:07.859Z,25.79
2022-08-22T08:59:10.208Z,26.02
2022-08-22T09:00:07.819Z,26.15
2022-08-22T09:01:07.865Z,26.22
2022-08-22T09:02:07.822Z,26.27
2022-08-22T09:03:08.790Z,26.35
2022-08-22T09:04:15.160Z,26.39
2022-08-22T09:05:08.767Z,26.46
2022-08-22T09:06:07.760Z,26.49
2022-08-22T09:07:07.742Z,26.59
2022-08-22T09:08:07.793Z,26.62
2022-08-22T09:09:07.731Z,26.67
2022-08-22T09:10:07.712Z,26.76
2022-08-22T09:11:09.996Z,26.83
2022-08-22T09:12:07.703Z,26.95
2022-08-22T09:14:08.662Z,27.29
2022-08-22T09:15:11.882Z,27.42
2022-08-22T09:16:09.940Z,27.43
2022-08-22T09:17:07.635Z,27.58
2022-08-22T09:18:07.626Z,27.70
2022-08-22T09:19:07.616Z,27.82
2022-08-22T09:20:18.039Z,27.91
2022-08-22T09:21:08.614Z,27.86
2022-08-22T09:22:14.294Z,27.96
2022-08-22T09:23:10.222Z,28.09
2022-08-22T09:24:07.585Z,28.10
2022-08-22T09:25:07.546Z,28.11
2022-08-22T09:26:07.535Z,28.06
2022-08-22T09:27:08.706Z,28.06
2022-08-22T09:28:07.515Z,28.09
2022-08-22T09:29:07.507Z,28.09
2022-08-22T09:30:07.524Z,28.21
2022-08-22T09:31:16.869Z,28.31
2022-08-22T09:33:08.470Z,28.44
2022-08-22T09:34:07.469Z,28.44
2022-08-22T09:35:07.451Z,28.50
2022-08-22T09:36:12.004Z,28.51
2022-08-22T09:37:08.439Z,28.59
2022-08-22T09:38:08.428Z,28.62
2022-08-22T09:39:07.429Z,28.68
2022-08-22T09:40:15.704Z,28.36
2022-08-22T09:40:16.276Z,28.75
2022-08-22T09:41:08.383Z,28.80
2022-08-22T09:42:08.012Z,28.90
2022-08-22T09:43:07.352Z,29.04
2022-08-22T09:44:07.363Z,29.06
2022-08-22T09:45:07.336Z,29.13
2022-08-22T09:46:07.321Z,29.16
2022-08-22T09:47:07.314Z,29.19
2022-08-22T09:48:07.635Z,29.18
2022-08-22T09:49:07.285Z,29.23
2022-08-22T09:50:07.297Z,29.26
2022-08-22T09:51:28.790Z,29.26
2022-08-22T09:52:15.202Z,29.22
2022-08-22T09:53:08.245Z,29.11
2022-08-22T09:54:07.228Z,29.18
2022-08-22T09:55:08.139Z,29.25
2022-08-22T09:56:11.729Z,29.33
2022-08-22T09:57:08.223Z,29.34
2022-08-22T09:58:11.238Z,29.38
2022-08-22T09:59:07.189Z,29.31
2022-08-22T10:00:07.168Z,29.22
2022-08-22T10:01:07.210Z,29.10
2022-08-22T10:02:07.138Z,28.96
2022-08-22T10:03:08.128Z,29.04
2022-08-22T10:04:07.120Z,29.15
2022-08-22T10:05:07.108Z,29.29
2022-08-22T10:06:07.116Z,29.35
2022-08-22T10:07:11.237Z,29.34
2022-08-22T10:08:08.071Z,29.18
2022-08-22T10:09:08.944Z,29.06
2022-08-22T10:10:07.050Z,29.01
2022-08-22T10:11:07.064Z,29.06
2022-08-22T10:12:07.023Z,29.11
2022-08-22T10:13:10.532Z,29.19
2022-08-22T10:14:07.011Z,29.26
2022-08-22T10:15:07.187Z,29.38
2022-08-22T10:16:06.985Z,29.50
2022-08-22T10:17:07.206Z,29.68
2022-08-22T10:18:06.954Z,29.86
2022-08-22T10:19:06.952Z,30.12
2022-08-22T10:20:06.933Z,30.34
2022-08-22T10:21:06.946Z,30.47
2022-08-22T10:22:07.021Z,30.81
2022-08-22T10:23:07.239Z,30.90
2022-08-22T10:24:07.201Z,30.94
2022-08-22T10:25:06.890Z,30.89
2022-08-22T10:26:06.898Z,30.83
2022-08-22T10:27:06.868Z,30.94
2022-08-22T10:28:06.846Z,31.05
2022-08-22T10:29:06.839Z,30.89
2022-08-22T10:30:06.839Z,30.71
2022-08-22T10:31:06.837Z,30.76
2022-08-22T10:32:14.554Z,30.91
2022-08-22T10:33:07.799Z,31.26
2022-08-22T10:34:06.793Z,31.54
2022-08-22T10:35:06.779Z,31.60
2022-08-22T10:36:06.800Z,31.68
2022-08-22T10:37:06.751Z,32.00
2022-08-22T10:38:06.740Z,32.18
2022-08-22T10:39:11.080Z,32.32
2022-08-22T10:40:07.819Z,32.57
2022-08-22T10:41:09.721Z,33.04
2022-08-22T10:42:06.751Z,33.65
2022-08-22T10:43:06.692Z,34.53
2022-08-22T10:44:06.685Z,35.03
2022-08-22T10:45:06.683Z,35.30
2022-08-22T10:46:06.850Z,35.82
2022-08-22T10:47:07.673Z,36.01
2022-08-22T10:48:08.621Z,35.76
2022-08-22T10:49:07.975Z,35.76
2022-08-22T10:50:10.789Z,35.64
2022-08-22T10:51:08.838Z,35.81
2022-08-22T10:52:15.350Z,35.58
2022-08-22T10:53:07.587Z,35.28
2022-08-22T10:54:06.588Z,35.47
2022-08-22T10:55:09.972Z,35.91
2022-08-22T10:56:06.556Z,35.85
2022-08-22T10:57:06.843Z,36.43
2022-08-22T10:58:06.546Z,36.80
2022-08-22T10:59:06.524Z,37.02
2022-08-22T11:00:06.514Z,37.17
2022-08-22T11:01:37.926Z,37.41
2022-08-22T11:02:08.171Z,37.71
2022-08-22T11:03:10.641Z,37.80
2022-08-22T11:04:07.471Z,37.92
2022-08-22T11:05:06.460Z,37.81
2022-08-22T11:06:06.470Z,37.66
2022-08-22T11:07:06.622Z,37.61
2022-08-22T11:08:06.451Z,37.76
2022-08-22T11:09:06.425Z,37.68
2022-08-22T11:10:06.405Z,37.55
2022-08-22T11:11:06.429Z,37.36
2022-08-22T11:12:06.385Z,37.46
2022-08-22T11:13:06.405Z,37.62
2022-08-22T11:14:06.380Z,37.73
2022-08-22T11:15:06.364Z,37.88
2022-08-22T11:16:06.350Z,37.93
2022-08-22T11:17:27.453Z,37.80
2022-08-22T11:18:07.348Z,37.95
2022-08-22T11:19:15.357Z,38.17
2022-08-22T11:20:07.320Z,37.16
2022-08-22T11:21:07.296Z,36.61
2022-08-22T11:22:06.288Z,36.68
2022-08-22T11:23:06.308Z,36.82
2022-08-22T11:24:06.270Z,37.02
2022-08-22T11:25:07.260Z,37.26
2022-08-22T11:26:06.252Z,37.67
2022-08-22T11:27:07.338Z,37.93
2022-08-22T11:28:07.233Z,38.23
2022-08-22T11:29:13.616Z,38.32
2022-08-22T11:30:07.254Z,38.41
2022-08-22T11:31:07.273Z,38.55
2022-08-22T11:32:07.988Z,38.66
2022-08-22T11:33:06.223Z,38.66
2022-08-22T11:34:06.173Z,38.26
2022-08-22T11:35:09.084Z,36.87
2022-08-22T11:36:06.183Z,35.76
2022-08-22T11:37:09.560Z,34.50
2022-08-22T11:38:08.883Z,34.22
2022-08-22T11:39:07.910Z,34.27
2022-08-22T11:40:07.176Z,34.32
2022-08-22T11:41:06.106Z,34.58
2022-08-22T11:42:06.148Z,35.36
2022-08-22T11:43:06.460Z,36.07
2022-08-22T11:44:07.077Z,36.58
2022-08-22T11:45:06.066Z,36.99
2022-08-22T11:46:06.058Z,37.36
2022-08-22T11:47:06.068Z,37.83
2022-08-22T11:48:06.037Z,38.20
2022-08-22T11:49:06.030Z,38.38
2022-08-22T11:50:10.763Z,38.42
2022-08-22T11:51:13.613Z,37.86
2022-08-22T11:52:07.033Z,37.02
2022-08-22T11:53:07.701Z,36.15
2022-08-22T11:54:06.001Z,36.06
2022-08-22T11:55:07.171Z,35.62
2022-08-22T11:56:05.960Z,35.51
2022-08-22T11:57:05.972Z,35.37
2022-08-22T11:58:05.944Z,36.01
2022-08-22T11:59:05.933Z,35.93
2022-08-22T12:00:05.931Z,35.82
2022-08-22T12:01:05.914Z,35.48
2022-08-22T12:02:05.959Z,35.92
2022-08-22T12:03:05.912Z,36.31
2022-08-22T12:04:05.894Z,35.81
2022-08-22T12:05:05.876Z,35.30
2022-08-22T12:06:05.867Z,35.23
2022-08-22T12:07:05.856Z,35.36
2022-08-22T12:08:05.875Z,35.21
2022-08-22T12:09:05.843Z,34.80
2022-08-22T12:10:05.838Z,34.13
2022-08-22T12:11:05.808Z,33.82
2022-08-22T12:12:05.827Z,33.67
2022-08-22T12:13:05.802Z,33.61
2022-08-22T12:14:06.500Z,33.58
2022-08-22T12:15:09.011Z,33.55
2022-08-22T12:16:05.769Z,33.51
2022-08-22T12:17:05.779Z,33.45
2022-08-22T12:18:05.817Z,33.41
2022-08-22T12:19:05.785Z,33.30
2022-08-22T12:20:16.827Z,33.33
2022-08-22T12:21:06.740Z,33.23
2022-08-22T12:22:05.711Z,33.14
2022-08-22T12:23:05.970Z,33.08
2022-08-22T12:24:06.014Z,33.11
2022-08-22T12:25:05.673Z,33.13
2022-08-22T12:26:05.672Z,33.04
2022-08-22T12:27:08.039Z,33.01
2022-08-22T12:28:05.642Z,33.03
2022-08-22T12:29:05.659Z,33.11
2022-08-22T12:30:13.726Z,33.36
2022-08-22T12:31:06.614Z,34.11
2022-08-22T12:32:05.604Z,35.20
2022-08-22T12:33:05.595Z,35.63
2022-08-22T12:34:06.540Z,36.49
2022-08-22T12:35:13.855Z,37.33
2022-08-22T12:36:06.564Z,37.77
2022-08-22T12:37:06.550Z,37.81
2022-08-22T12:38:21.227Z,38.14
2022-08-22T12:39:07.801Z,37.89
2022-08-22T12:40:05.571Z,37.88
2022-08-22T12:41:08.156Z,37.99
2022-08-22T12:42:05.501Z,37.28
2022-08-22T12:43:06.471Z,36.73
2022-08-22T12:44:05.500Z,36.01
2022-08-22T12:45:05.489Z,35.29
2022-08-22T12:46:05.463Z,34.76
2022-08-22T12:47:05.442Z,34.34
2022-08-22T12:48:05.441Z,34.02